Terminal Aerodrome Forecast
Issued by NWS

Home | Current Version | Previous Version | Text Only | Print | Product List | Glossary On
Versions: 1 2 3 4 5 6 7 8 9 10 11 12 13 14 15 16 17 18 19 20
000
FTUS44 KBMX 301343 AAA
TAFTCL
TAF AMD
KTCL 301343Z 3014/3112 22005KT P6SM VCSH SCT025 BKN035 BKN080
     FM301700 23005KT P6SM -SHRA BKN040 BKN250
      TEMPO 3017/3021 4SM TSRA BR OVC035CB
     FM310100 18002KT P6SM OVC100=

USA.gov is the U.S. government's official web portal to all federal, state and local government web resources and services.